createdAt,value
2023-10-18T00:00:30.616Z,94069.00
2023-10-18T00:04:35.667Z,94069.00
2023-10-18T00:08:39.141Z,94063.00
2023-10-18T00:12:45.289Z,94068.00
2023-10-18T00:16:49.099Z,94071.00
2023-10-18T00:21:01.997Z,94046.00
2023-10-18T00:25:10.001Z,94046.00
2023-10-18T00:29:13.677Z,94026.00
2023-10-18T00:33:19.264Z,94032.00
2023-10-18T00:37:25.153Z,94030.00
2023-10-18T00:41:34.221Z,94030.00
2023-10-18T00:45:45.553Z,94040.00
2023-10-18T00:49:53.701Z,94022.00
2023-10-18T00:53:58.897Z,94021.00
2023-10-18T00:58:06.634Z,94018.00
2023-10-18T01:02:15.832Z,94016.00
2023-10-18T01:06:23.184Z,94019.00
2023-10-18T01:10:32.121Z,94010.00
2023-10-18T01:14:35.580Z,93998.00
2023-10-18T01:18:41.087Z,93999.00
2023-10-18T01:22:45.381Z,93994.00
2023-10-18T01:26:50.399Z,93993.00
2023-10-18T01:30:54.212Z,93995.00
2023-10-18T01:34:57.989Z,93993.00
2023-10-18T01:39:01.925Z,93996.00
2023-10-18T01:43:07.052Z,93983.00
2023-10-18T01:47:10.776Z,93987.00
2023-10-18T01:51:14.428Z,93979.00
2023-10-18T01:55:19.269Z,93979.00
2023-10-18T01:59:29.051Z,93975.00
2023-10-18T02:03:33.464Z,93978.00
2023-10-18T02:07:38.208Z,93967.00
2023-10-18T02:11:42.053Z,93973.00
2023-10-18T02:15:49.719Z,93976.00
2023-10-18T02:19:53.573Z,93983.00
2023-10-18T02:23:57.340Z,93977.00
2023-10-18T02:28:01.256Z,93971.00
2023-10-18T02:32:23.141Z,93957.00
2023-10-18T02:36:34.102Z,93957.00
2023-10-18T02:40:39.600Z,93956.00
2023-10-18T02:44:46.445Z,93951.00
2023-10-18T02:48:53.358Z,93942.00
2023-10-18T02:52:57.132Z,93942.00
2023-10-18T02:57:00.949Z,93947.00
2023-10-18T03:01:09.198Z,93928.00
2023-10-18T03:05:14.182Z,93928.00
2023-10-18T03:09:29.561Z,93939.00
2023-10-18T03:13:33.352Z,93943.00
2023-10-18T03:17:37.962Z,93931.00
2023-10-18T03:21:48.473Z,93930.00
2023-10-18T03:26:01.205Z,93932.00
2023-10-18T03:30:19.423Z,93923.00
2023-10-18T03:34:24.000Z,93925.00
2023-10-18T03:38:32.105Z,93914.00
2023-10-18T03:42:35.627Z,93914.00
2023-10-18T03:46:48.578Z,93912.00
2023-10-18T03:50:56.113Z,93909.00
2023-10-18T03:55:08.142Z,93913.00
2023-10-18T03:59:22.318Z,93916.00
2023-10-18T04:03:30.403Z,93919.00
2023-10-18T04:07:34.576Z,93905.00
2023-10-18T04:11:39.500Z,93894.00
2023-10-18T04:15:47.258Z,93901.00
2023-10-18T04:19:51.306Z,93895.00
2023-10-18T04:23:57.856Z,93895.00
2023-10-18T04:28:03.415Z,93903.00
2023-10-18T04:32:17.222Z,93894.00
2023-10-18T04:36:22.147Z,93891.00
2023-10-18T04:40:27.559Z,93890.00
2023-10-18T04:44:35.886Z,93879.00
2023-10-18T04:49:01.949Z,93887.00
2023-10-18T04:53:13.694Z,93884.00
2023-10-18T04:57:17.110Z,93880.00
2023-10-18T05:01:24.134Z,93880.00
2023-10-18T05:05:28.517Z,93875.00
2023-10-18T05:09:36.202Z,93878.00
2023-10-18T05:13:43.450Z,93876.00
2023-10-18T05:17:49.459Z,93890.00
2023-10-18T05:21:53.220Z,93884.00
2023-10-18T05:26:10.451Z,93875.00
2023-10-18T05:30:17.381Z,93877.00
2023-10-18T05:34:23.559Z,93886.00
2023-10-18T05:38:50.050Z,93876.00
2023-10-18T05:42:53.662Z,93882.00
2023-10-18T05:46:58.409Z,93882.00
2023-10-18T05:51:36.672Z,93883.00
2023-10-18T05:55:42.049Z,93880.00
2023-10-18T05:59:47.958Z,93892.00
2023-10-18T06:03:52.828Z,93887.00
2023-10-18T06:07:58.218Z,93887.00
2023-10-18T06:12:02.672Z,93879.00
2023-10-18T06:16:20.777Z,93882.00
2023-10-18T06:20:29.083Z,93884.00
2023-10-18T06:24:34.490Z,93895.00
2023-10-18T06:28:39.176Z,93882.00
2023-10-18T06:32:42.698Z,93888.00
2023-10-18T06:36:48.916Z,93892.00
2023-10-18T06:41:06.784Z,93885.00
2023-10-18T06:45:17.376Z,93891.00
2023-10-18T06:49:21.177Z,93893.00
2023-10-18T06:53:27.158Z,93895.00
2023-10-18T06:57:37.525Z,93892.00
2023-10-18T07:01:45.647Z,93886.00
2023-10-18T07:05:53.386Z,93892.00
2023-10-18T07:09:59.994Z,93891.00
2023-10-18T07:14:06.622Z,93896.00
2023-10-18T07:18:15.467Z,93905.00
2023-10-18T07:22:22.992Z,93893.00
2023-10-18T07:26:26.737Z,93884.00
2023-10-18T07:30:43.620Z,93883.00
2023-10-18T07:34:47.196Z,93882.00
2023-10-18T07:38:56.709Z,93872.00
2023-10-18T07:43:00.170Z,93878.00
2023-10-18T07:47:05.641Z,93867.00
2023-10-18T07:51:27.225Z,93880.00
2023-10-18T07:55:38.455Z,93872.00
2023-10-18T07:59:47.381Z,93868.00
2023-10-18T08:03:54.332Z,93868.00
2023-10-18T08:08:04.717Z,93861.00
2023-10-18T08:12:09.193Z,93854.00
2023-10-18T08:16:21.042Z,93852.00
2023-10-18T08:20:39.932Z,93855.00
2023-10-18T08:24:51.246Z,93851.00
2023-10-18T08:28:58.774Z,93848.00
2023-10-18T08:33:05.090Z,93845.00
2023-10-18T08:37:12.781Z,93855.00
2023-10-18T08:41:17.479Z,93851.00
2023-10-18T08:45:24.856Z,93855.00
2023-10-18T08:49:34.179Z,93850.00
2023-10-18T08:53:42.633Z,93851.00
2023-10-18T08:57:47.343Z,93857.00
2023-10-18T09:02:08.539Z,93846.00
2023-10-18T09:06:23.595Z,93847.00
2023-10-18T09:10:44.632Z,93835.00
2023-10-18T09:14:52.133Z,93839.00
2023-10-18T09:18:56.237Z,93836.00
2023-10-18T09:23:04.850Z,93832.00
2023-10-18T09:27:09.923Z,93833.00
2023-10-18T09:31:22.052Z,93840.00
2023-10-18T09:35:28.507Z,93827.00
2023-10-18T09:39:39.899Z,93844.00
2023-10-18T09:43:45.810Z,93840.00
2023-10-18T09:47:50.565Z,93843.00
2023-10-18T09:51:56.583Z,93843.00
2023-10-18T09:56:02.058Z,93836.00
2023-10-18T10:00:13.446Z,93838.00
2023-10-18T10:04:18.874Z,93832.00
2023-10-18T10:08:24.554Z,93831.00
2023-10-18T10:12:28.832Z,93824.00
2023-10-18T10:16:35.174Z,93814.00
2023-10-18T10:20:41.940Z,93808.00
2023-10-18T10:24:53.000Z,93806.00
2023-10-18T10:29:32.615Z,93792.00
2023-10-18T10:34:07.923Z,93781.00
2023-10-18T10:38:20.400Z,93779.00
2023-10-18T10:42:43.238Z,93778.00
2023-10-18T10:46:47.347Z,93760.00
2023-10-18T10:50:53.651Z,93760.00
2023-10-18T10:55:05.586Z,93760.00
2023-10-18T10:59:17.435Z,93751.00
2023-10-18T11:03:31.238Z,93750.00
2023-10-18T11:07:41.725Z,93744.00
2023-10-18T11:11:47.698Z,93737.00
2023-10-18T11:15:52.998Z,93749.00
2023-10-18T11:19:56.888Z,93736.00
2023-10-18T11:24:03.811Z,93730.00
2023-10-18T11:28:30.140Z,93717.00
2023-10-18T11:32:34.047Z,93716.00
2023-10-18T11:36:40.539Z,93705.00
2023-10-18T11:40:45.664Z,93705.00
2023-10-18T11:44:55.862Z,93698.00
2023-10-18T11:48:59.405Z,93701.00
2023-10-18T11:53:10.380Z,93690.00
2023-10-18T11:57:27.966Z,93688.00
2023-10-18T12:01:36.378Z,93673.00
2023-10-18T12:05:43.551Z,93666.00
2023-10-18T12:09:48.276Z,93667.00
2023-10-18T12:13:51.716Z,93656.00
2023-10-18T12:17:57.324Z,93653.00
2023-10-18T12:22:02.344Z,93642.00
2023-10-18T12:26:08.407Z,93646.00
2023-10-18T12:30:31.916Z,93631.00
2023-10-18T12:34:37.795Z,93646.00
2023-10-18T12:38:44.627Z,93651.00
2023-10-18T12:42:48.196Z,93647.00
2023-10-18T12:46:54.977Z,93636.00
2023-10-18T12:51:09.162Z,93632.00
2023-10-18T12:55:26.896Z,93629.00
2023-10-18T12:59:39.593Z,93622.00
2023-10-18T13:03:45.805Z,93623.00
2023-10-18T13:07:53.919Z,93611.00
2023-10-18T13:12:09.286Z,93599.00
2023-10-18T13:16:16.591Z,93591.00
2023-10-18T13:20:26.334Z,93578.00
2023-10-18T13:24:32.647Z,93565.00
2023-10-18T13:28:37.204Z,93563.00
2023-10-18T13:32:41.877Z,93559.00
2023-10-18T13:36:46.245Z,93555.00
2023-10-18T13:40:51.105Z,93558.00
2023-10-18T13:44:54.759Z,93551.00
2023-10-18T13:48:58.803Z,93549.00
2023-10-18T13:53:02.392Z,93556.00
2023-10-18T13:57:07.543Z,93551.00
2023-10-18T14:01:22.152Z,93551.00
2023-10-18T14:05:27.671Z,93533.00
2023-10-18T14:09:35.472Z,93535.00
2023-10-18T14:13:40.907Z,93522.00
2023-10-18T14:17:45.303Z,93524.00
2023-10-18T14:21:50.549Z,93514.00
2023-10-18T14:25:54.467Z,93528.00
2023-10-18T14:30:02.235Z,93518.00
2023-10-18T14:34:06.287Z,93515.00
2023-10-18T14:38:14.047Z,93521.00
2023-10-18T14:42:18.211Z,93507.00
2023-10-18T14:46:24.339Z,93505.00
2023-10-18T14:50:28.740Z,93514.00
2023-10-18T14:54:32.467Z,93508.00
2023-10-18T14:58:36.205Z,93490.00
2023-10-18T15:02:41.662Z,93500.00
2023-10-18T15:06:45.150Z,93491.00
2023-10-18T15:10:50.581Z,93488.00
2023-10-18T15:14:54.858Z,93479.00
2023-10-18T15:18:59.875Z,93465.00
2023-10-18T15:23:03.772Z,93459.00
2023-10-18T15:27:08.505Z,93471.00
2023-10-18T15:31:13.788Z,93448.00
2023-10-18T15:35:18.948Z,93451.00
2023-10-18T15:39:22.634Z,93454.00
2023-10-18T15:43:28.315Z,93448.00
2023-10-18T15:47:32.060Z,93449.00
2023-10-18T15:51:37.984Z,93436.00
2023-10-18T15:55:41.555Z,93443.00
2023-10-18T15:59:45.018Z,93444.00
2023-10-18T16:03:50.308Z,93434.00
2023-10-18T16:07:57.092Z,93438.00
2023-10-18T16:12:01.095Z,93436.00
2023-10-18T16:16:06.606Z,93426.00
2023-10-18T16:20:11.046Z,93432.00
2023-10-18T16:24:16.291Z,93432.00
2023-10-18T16:28:20.200Z,93432.00
2023-10-18T16:32:24.463Z,93418.00
2023-10-18T16:36:28.176Z,93424.00
2023-10-18T16:40:34.476Z,93411.00
2023-10-18T16:44:37.912Z,93400.00
2023-10-18T16:48:44.559Z,93400.00
2023-10-18T16:52:47.967Z,93401.00
2023-10-18T16:56:52.980Z,93390.00
2023-10-18T17:01:00.057Z,93379.00
2023-10-18T17:05:05.735Z,93362.00
2023-10-18T17:09:18.234Z,93365.00
2023-10-18T17:13:24.358Z,93347.00
2023-10-18T17:17:27.864Z,93344.00
2023-10-18T17:21:32.640Z,93344.00
2023-10-18T17:25:37.497Z,93345.00
2023-10-18T17:29:42.544Z,93335.00
2023-10-18T17:33:45.998Z,93332.00
2023-10-18T17:37:50.348Z,93327.00
2023-10-18T17:41:54.637Z,93321.00
2023-10-18T17:45:59.954Z,93317.00
2023-10-18T17:50:06.197Z,93317.00
2023-10-18T17:54:09.794Z,93316.00
2023-10-18T17:58:16.130Z,93311.00
2023-10-18T18:02:21.344Z,93304.00
2023-10-18T18:06:25.628Z,93295.00
2023-10-18T18:10:30.219Z,93292.00
2023-10-18T18:14:37.141Z,93283.00
2023-10-18T18:18:44.937Z,93283.00
2023-10-18T18:22:49.457Z,93286.00
2023-10-18T18:26:53.212Z,93277.00
2023-10-18T18:30:57.377Z,93254.00
2023-10-18T18:35:02.355Z,93253.00
2023-10-18T18:39:08.032Z,93248.00
2023-10-18T18:43:11.766Z,93251.00
2023-10-18T18:47:15.939Z,93247.00
2023-10-18T18:51:21.081Z,93246.00
2023-10-18T18:55:26.921Z,93246.00
2023-10-18T18:59:30.706Z,93259.00
2023-10-18T19:03:36.181Z,93266.00
2023-10-18T19:07:44.296Z,93259.00
2023-10-18T19:11:48.141Z,93259.00
2023-10-18T19:15:51.952Z,93256.00
2023-10-18T19:19:55.655Z,93249.00
2023-10-18T19:24:01.342Z,93247.00
2023-10-18T19:28:05.403Z,93245.00
2023-10-18T19:32:09.988Z,93243.00
2023-10-18T19:36:14.405Z,93249.00
2023-10-18T19:40:19.905Z,93239.00
2023-10-18T19:44:23.472Z,93240.00
2023-10-18T19:48:28.823Z,93225.00
2023-10-18T19:52:32.691Z,93212.00
2023-10-18T19:56:37.797Z,93220.00
2023-10-18T20:00:41.350Z,93221.00
2023-10-18T20:04:44.989Z,93221.00
2023-10-18T20:08:49.018Z,93225.00
2023-10-18T20:12:54.211Z,93212.00
2023-10-18T20:16:57.808Z,93203.00
2023-10-18T20:21:02.352Z,93210.00
2023-10-18T20:25:07.725Z,93205.00
2023-10-18T20:29:14.104Z,93205.00
2023-10-18T20:33:18.088Z,93198.00
2023-10-18T20:37:22.496Z,93192.00
2023-10-18T20:41:26.242Z,93198.00
2023-10-18T20:45:36.673Z,93198.00
2023-10-18T20:49:41.665Z,93187.00
2023-10-18T20:53:47.047Z,93186.00
2023-10-18T20:57:50.751Z,93182.00
2023-10-18T21:02:01.900Z,93178.00
2023-10-18T21:06:13.648Z,93174.00
2023-10-18T21:10:19.645Z,93158.00
2023-10-18T21:14:24.839Z,93153.00
2023-10-18T21:18:29.943Z,93141.00
2023-10-18T21:22:33.597Z,93152.00
2023-10-18T21:26:38.629Z,93151.00
2023-10-18T21:30:42.328Z,93147.00
2023-10-18T21:34:47.529Z,93133.00
2023-10-18T21:38:51.663Z,93123.00
2023-10-18T21:42:55.425Z,93144.00
2023-10-18T21:46:59.173Z,93143.00
2023-10-18T21:51:06.670Z,93141.00
2023-10-18T21:55:11.158Z,93144.00
2023-10-18T21:59:16.048Z,93130.00
2023-10-18T22:03:21.900Z,93135.00
2023-10-18T22:07:26.947Z,93138.00
2023-10-18T22:11:31.791Z,93125.00
2023-10-18T22:15:37.082Z,93127.00
2023-10-18T22:19:40.666Z,93121.00
2023-10-18T22:23:47.515Z,93110.00
2023-10-18T22:27:57.370Z,93107.00
2023-10-18T22:32:16.194Z,93113.00
2023-10-18T22:36:22.610Z,93094.00
2023-10-18T22:40:28.338Z,93095.00
2023-10-18T22:44:35.004Z,93085.00
2023-10-18T22:48:39.444Z,93094.00
2023-10-18T22:52:46.085Z,93085.00
2023-10-18T22:56:57.935Z,93090.00
2023-10-18T23:01:02.505Z,93074.00
2023-10-18T23:05:13.249Z,93060.00
2023-10-18T23:09:25.197Z,93071.00
2023-10-18T23:13:41.528Z,93052.00
2023-10-18T23:17:53.397Z,93048.00
2023-10-18T23:21:59.057Z,93032.00
2023-10-18T23:26:21.615Z,93033.00
2023-10-18T23:30:33.908Z,93042.00
2023-10-18T23:34:38.727Z,93024.00
2023-10-18T23:38:44.788Z,93015.00
2023-10-18T23:42:55.574Z,93022.00
2023-10-18T23:47:04.831Z,93030.00
2023-10-18T23:51:22.573Z,93025.00
2023-10-18T23:55:38.085Z,93030.00
2023-10-18T23:59:42.514Z,93005.00
